createdAt,value
2018-11-23T00:01:30.392Z,87.82
2018-11-23T00:07:35.050Z,87.67
2018-11-23T00:13:39.690Z,87.44
2018-11-23T00:19:44.694Z,87.82
2018-11-23T00:25:49.958Z,87.27
2018-11-23T00:31:55.386Z,87.75
2018-11-23T00:38:00.729Z,87.28
2018-11-23T00:44:06.268Z,87.75
2018-11-23T00:50:13.797Z,87.79
2018-11-23T00:56:19.551Z,87.79
2018-11-23T01:02:24.287Z,87.22
2018-11-23T01:08:29.845Z,87.44
2018-11-23T01:14:35.234Z,87.49
2018-11-23T01:20:39.956Z,88.02
2018-11-23T01:26:44.620Z,87.11
2018-11-23T01:32:49.394Z,87.53
2018-11-23T01:38:54.064Z,87.60
2018-11-23T01:44:58.805Z,87.81
2018-11-23T01:51:03.491Z,87.85
2018-11-23T01:57:08.229Z,87.65
2018-11-23T02:03:12.917Z,87.66
2018-11-23T02:09:17.604Z,87.25
2018-11-23T02:15:23.205Z,88.43
2018-11-23T02:21:27.860Z,88.69
2018-11-23T02:27:32.571Z,87.30
2018-11-23T02:33:40.327Z,87.98
2018-11-23T02:39:45.444Z,88.72
2018-11-23T02:45:50.468Z,88.31
2018-11-23T02:51:55.863Z,87.56
2018-11-23T02:58:00.512Z,87.86
2018-11-23T03:04:05.804Z,88.39
2018-11-23T03:10:12.299Z,88.01
2018-11-23T03:16:17.034Z,88.29
2018-11-23T03:22:21.750Z,88.14
2018-11-23T03:28:26.400Z,88.34
2018-11-23T03:34:31.048Z,88.45
2018-11-23T03:40:35.708Z,88.25
2018-11-23T03:46:40.367Z,87.96
2018-11-23T03:52:45.499Z,88.45
2018-11-23T03:58:51.299Z,88.48
2018-11-23T04:04:56.849Z,88.82
2018-11-23T04:11:01.495Z,89.05
2018-11-23T04:17:06.837Z,88.97
2018-11-23T04:23:11.469Z,88.61
2018-11-23T04:29:16.113Z,88.71
2018-11-23T04:35:21.595Z,88.84
2018-11-23T04:41:26.245Z,87.94
2018-11-23T04:47:31.143Z,88.70
2018-11-23T04:53:35.822Z,89.33
2018-11-23T04:59:40.473Z,88.23
2018-11-23T05:05:45.115Z,87.65
2018-11-23T05:11:50.290Z,88.55
2018-11-23T05:17:54.578Z,87.86
2018-11-23T05:23:59.755Z,88.86
2018-11-23T05:30:05.016Z,88.43
2018-11-23T05:36:10.396Z,88.65
2018-11-23T05:42:15.275Z,88.04
2018-11-23T05:48:26.786Z,89.14
2018-11-23T05:54:25.885Z,88.65
2018-11-23T06:00:31.690Z,88.17
2018-11-23T06:06:42.267Z,88.02
2018-11-23T06:12:43.133Z,88.40
2018-11-23T06:18:48.199Z,87.84
2018-11-23T06:24:52.895Z,88.10
2018-11-23T06:30:57.562Z,88.69
2018-11-23T06:37:02.267Z,88.69
2018-11-23T06:43:07.440Z,88.47
2018-11-23T06:49:12.141Z,88.88
2018-11-23T06:55:16.856Z,88.80
2018-11-23T07:01:21.518Z,87.88
2018-11-23T07:07:26.550Z,88.09
2018-11-23T07:13:32.810Z,87.58
2018-11-23T07:19:37.570Z,87.81
2018-11-23T07:25:42.284Z,88.01
2018-11-23T07:31:47.062Z,87.66
2018-11-23T07:37:52.593Z,87.72
2018-11-23T07:43:57.925Z,87.09
2018-11-23T07:50:02.648Z,87.28
2018-11-23T07:56:07.730Z,86.85
2018-11-23T08:02:13.542Z,85.98
2018-11-23T08:08:18.282Z,85.94
2018-11-23T08:14:23.821Z,85.88
2018-11-23T08:20:28.481Z,86.35
2018-11-23T08:26:33.128Z,85.26
2018-11-23T08:32:38.103Z,84.75
2018-11-23T08:38:42.775Z,84.58
2018-11-23T08:44:47.859Z,83.62
2018-11-23T08:50:52.611Z,83.42
2018-11-23T08:56:57.611Z,82.23
2018-11-23T09:03:03.483Z,82.44
2018-11-23T09:09:11.491Z,83.04
2018-11-23T09:15:17.531Z,82.23
2018-11-23T09:21:21.860Z,81.86
2018-11-23T09:27:26.879Z,81.98
2018-11-23T09:33:31.561Z,80.43
2018-11-23T09:39:37.286Z,81.14
2018-11-23T09:45:41.910Z,80.98
2018-11-23T09:51:46.627Z,79.54
2018-11-23T09:57:51.964Z,79.28
2018-11-23T10:03:56.674Z,80.38
2018-11-23T10:10:01.326Z,79.68
2018-11-23T10:16:06.032Z,80.18
2018-11-23T10:22:11.333Z,79.08
2018-11-23T10:28:16.399Z,79.56
2018-11-23T10:34:21.045Z,77.47
2018-11-23T10:40:27.455Z,78.43
2018-11-23T10:46:32.286Z,77.25
2018-11-23T10:52:37.391Z,77.40
2018-11-23T10:58:42.056Z,77.61
2018-11-23T11:04:53.806Z,76.50
2018-11-23T11:10:58.850Z,77.53
2018-11-23T11:17:03.652Z,76.70
2018-11-23T11:23:08.387Z,77.69
2018-11-23T11:29:13.514Z,76.96
2018-11-23T11:35:18.192Z,76.31
2018-11-23T11:41:22.944Z,76.38
2018-11-23T11:47:28.279Z,77.58
2018-11-23T11:53:32.943Z,76.72
2018-11-23T11:59:37.628Z,76.32
2018-11-23T12:05:42.656Z,75.98
2018-11-23T12:11:47.950Z,76.08
2018-11-23T12:17:53.059Z,76.28
2018-11-23T12:23:58.192Z,76.92
2018-11-23T12:30:04.160Z,76.25
2018-11-23T12:36:08.966Z,75.18
2018-11-23T12:42:13.704Z,76.32
2018-11-23T12:48:18.487Z,75.57
2018-11-23T12:54:23.260Z,76.99
2018-11-23T13:00:29.067Z,77.88
2018-11-23T13:06:34.116Z,77.35
2018-11-23T13:12:39.203Z,77.02
2018-11-23T13:18:44.150Z,77.48
2018-11-23T13:24:49.281Z,77.25
2018-11-23T13:30:54.014Z,77.30
2018-11-23T13:36:58.711Z,78.64
2018-11-23T13:43:03.457Z,78.11
2018-11-23T13:49:08.185Z,78.90
2018-11-23T13:55:13.718Z,78.88
2018-11-23T14:01:18.852Z,79.31
2018-11-23T14:07:23.596Z,79.53
2018-11-23T14:13:28.379Z,79.03
2018-11-23T14:19:33.098Z,79.78
2018-11-23T14:25:38.207Z,80.44
2018-11-23T14:31:42.930Z,80.66
2018-11-23T14:37:48.904Z,81.71
2018-11-23T14:43:54.111Z,81.28
2018-11-23T14:49:59.605Z,82.23
2018-11-23T14:56:04.328Z,82.49
2018-11-23T15:02:08.991Z,83.10
2018-11-23T15:08:13.791Z,83.17
2018-11-23T15:14:18.473Z,83.76
2018-11-23T15:20:26.840Z,83.55
2018-11-23T15:26:31.537Z,84.02
2018-11-23T15:32:36.657Z,84.57
2018-11-23T15:38:41.785Z,84.93
2018-11-23T15:44:46.516Z,84.57
2018-11-23T15:50:51.535Z,84.49
2018-11-23T15:56:56.237Z,85.14
2018-11-23T16:03:01.001Z,84.80
2018-11-23T16:09:10.082Z,85.79
2018-11-23T16:15:14.789Z,85.21
2018-11-23T16:21:19.822Z,86.04
2018-11-23T16:27:24.635Z,85.75
2018-11-23T16:33:29.320Z,85.80
2018-11-23T16:39:34.065Z,86.68
2018-11-23T16:45:39.319Z,86.14
2018-11-23T16:51:44.414Z,86.33
2018-11-23T16:57:50.962Z,86.39
2018-11-23T17:03:55.637Z,87.16
2018-11-23T17:10:00.428Z,87.01
2018-11-23T17:16:05.435Z,87.40
2018-11-23T17:22:10.898Z,86.64
2018-11-23T17:28:16.197Z,86.60
2018-11-23T17:34:20.898Z,86.69
2018-11-23T17:40:27.057Z,86.57
2018-11-23T17:46:32.675Z,87.46
2018-11-23T17:52:38.267Z,87.50
2018-11-23T17:58:43.201Z,87.32
2018-11-23T18:04:48.196Z,88.05
2018-11-23T18:10:53.627Z,87.87
2018-11-23T18:16:58.549Z,87.58
2018-11-23T18:23:03.949Z,88.54
2018-11-23T18:29:08.962Z,87.97
2018-11-23T18:35:15.408Z,88.65
2018-11-23T18:41:20.541Z,88.79
2018-11-23T18:47:25.595Z,89.14
2018-11-23T18:53:30.301Z,89.08
2018-11-23T18:59:35.512Z,89.14
2018-11-23T19:05:40.662Z,89.30
2018-11-23T19:11:45.393Z,89.27
2018-11-23T19:17:50.146Z,88.44
2018-11-23T19:23:54.908Z,88.63
2018-11-23T19:29:59.991Z,88.77
2018-11-23T19:36:05.712Z,88.87
2018-11-23T19:42:10.457Z,88.67
2018-11-23T19:48:15.112Z,87.99
2018-11-23T19:54:20.535Z,88.84
2018-11-23T20:00:27.787Z,88.71
2018-11-23T20:06:32.508Z,88.79
2018-11-23T20:12:37.325Z,88.79
2018-11-23T20:18:42.801Z,88.71
2018-11-23T20:24:47.549Z,88.33
2018-11-23T20:30:52.996Z,89.35
2018-11-23T20:36:57.768Z,88.68
2018-11-23T20:43:02.602Z,89.34
2018-11-23T20:49:07.478Z,88.42
2018-11-23T20:55:24.628Z,89.68
2018-11-23T21:01:29.404Z,89.45
2018-11-23T21:07:34.511Z,89.51
2018-11-23T21:13:39.291Z,89.80
2018-11-23T21:19:44.025Z,89.62
2018-11-23T21:25:49.356Z,90.04
2018-11-23T21:31:54.404Z,90.36
2018-11-23T21:37:59.218Z,90.85
2018-11-23T21:44:04.337Z,90.58
2018-11-23T21:50:15.367Z,91.10
2018-11-23T21:56:20.442Z,90.99
2018-11-23T22:02:25.620Z,91.22
2018-11-23T22:08:30.960Z,90.86
2018-11-23T22:14:35.808Z,91.33
2018-11-23T22:20:40.570Z,90.53
2018-11-23T22:26:45.280Z,92.17
2018-11-23T22:32:50.898Z,91.33
2018-11-23T22:38:55.639Z,91.39
2018-11-23T22:45:00.362Z,91.94
2018-11-23T22:51:05.401Z,91.23
2018-11-23T22:57:11.723Z,91.87
2018-11-23T23:03:15.702Z,91.82
2018-11-23T23:09:20.754Z,91.95
2018-11-23T23:15:25.823Z,91.26
2018-11-23T23:21:30.564Z,91.72
2018-11-23T23:27:36.304Z,91.48
2018-11-23T23:33:41.026Z,91.00
2018-11-23T23:39:46.052Z,89.97
2018-11-23T23:45:51.093Z,91.01
2018-11-23T23:51:55.836Z,91.41
2018-11-23T23:58:01.476Z,91.59
